sensor_id;sensor_type;location;lat;lon;timestamp;P1;durP1;ratioP1;P2;durP2;ratioP2
57663;SDS011;43493;53.098;6.064;2023-04-06T00:01:36;8.43;;;4.65;;
57663;SDS011;43493;53.098;6.064;2023-04-06T00:04:02;7.55;;;4.68;;
57663;SDS011;43493;53.098;6.064;2023-04-06T00:06:28;8.67;;;4.77;;
57663;SDS011;43493;53.098;6.064;2023-04-06T00:08:55;7.97;;;4.93;;
57663;SDS011;43493;53.098;6.064;2023-04-06T00:11:21;8.38;;;4.28;;
57663;SDS011;43493;53.098;6.064;2023-04-06T00:13:47;13.23;;;5.47;;
57663;SDS011;43493;53.098;6.064;2023-04-06T00:16:12;10.40;;;4.90;;
57663;SDS011;43493;53.098;6.064;2023-04-06T00:18:38;7.93;;;4.23;;
57663;SDS011;43493;53.098;6.064;2023-04-06T00:21:04;10.45;;;4.72;;
57663;SDS011;43493;53.098;6.064;2023-04-06T00:23:30;10.13;;;4.73;;
57663;SDS011;43493;53.098;6.064;2023-04-06T00:25:55;10.10;;;4.90;;
57663;SDS011;43493;53.098;6.064;2023-04-06T00:28:21;8.73;;;4.90;;
57663;SDS011;43493;53.098;6.064;2023-04-06T00:30:50;8.30;;;5.20;;
57663;SDS011;43493;53.098;6.064;2023-04-06T00:33:20;8.27;;;4.53;;
57663;SDS011;43493;53.098;6.064;2023-04-06T00:35:50;6.95;;;4.55;;
57663;SDS011;43493;53.098;6.064;2023-04-06T00:38:15;10.20;;;5.07;;
57663;SDS011;43493;53.098;6.064;2023-04-06T00:40:42;10.33;;;4.90;;
57663;SDS011;43493;53.098;6.064;2023-04-06T00:43:11;8.02;;;4.07;;
57663;SDS011;43493;53.098;6.064;2023-04-06T00:45:38;12.23;;;5.28;;
57663;SDS011;43493;53.098;6.064;2023-04-06T00:48:05;8.65;;;4.65;;
57663;SDS011;43493;53.098;6.064;2023-04-06T00:50:31;9.80;;;4.80;;
57663;SDS011;43493;53.098;6.064;2023-04-06T00:52:58;9.52;;;5.57;;
57663;SDS011;43493;53.098;6.064;2023-04-06T00:55:25;10.85;;;5.20;;
57663;SDS011;43493;53.098;6.064;2023-04-06T00:57:55;8.27;;;4.90;;
57663;SDS011;43493;53.098;6.064;2023-04-06T01:00:23;9.60;;;4.93;;
57663;SDS011;43493;53.098;6.064;2023-04-06T01:02:49;6.72;;;4.30;;
57663;SDS011;43493;53.098;6.064;2023-04-06T01:05:15;9.57;;;5.43;;
57663;SDS011;43493;53.098;6.064;2023-04-06T01:07:41;9.70;;;5.00;;
57663;SDS011;43493;53.098;6.064;2023-04-06T01:10:07;8.13;;;4.77;;
57663;SDS011;43493;53.098;6.064;2023-04-06T01:12:33;7.85;;;4.00;;
57663;SDS011;43493;53.098;6.064;2023-04-06T01:14:59;8.87;;;4.63;;
57663;SDS011;43493;53.098;6.064;2023-04-06T01:17:25;7.93;;;4.68;;
57663;SDS011;43493;53.098;6.064;2023-04-06T01:19:50;11.17;;;5.90;;
57663;SDS011;43493;53.098;6.064;2023-04-06T01:22:19;8.77;;;4.65;;
57663;SDS011;43493;53.098;6.064;2023-04-06T01:24:45;8.50;;;4.43;;
57663;SDS011;43493;53.098;6.064;2023-04-06T01:27:11;8.70;;;4.90;;
57663;SDS011;43493;53.098;6.064;2023-04-06T01:29:37;7.43;;;4.53;;
57663;SDS011;43493;53.098;6.064;2023-04-06T01:32:06;10.50;;;4.72;;
57663;SDS011;43493;53.098;6.064;2023-04-06T01:34:32;7.20;;;4.10;;
57663;SDS011;43493;53.098;6.064;2023-04-06T01:36:58;8.57;;;4.70;;
57663;SDS011;43493;53.098;6.064;2023-04-06T01:39:24;7.93;;;4.53;;
57663;SDS011;43493;53.098;6.064;2023-04-06T01:41:50;6.50;;;3.80;;
57663;SDS011;43493;53.098;6.064;2023-04-06T01:44:16;7.90;;;4.10;;
57663;SDS011;43493;53.098;6.064;2023-04-06T01:46:43;7.70;;;5.07;;
57663;SDS011;43493;53.098;6.064;2023-04-06T01:49:10;7.00;;;4.22;;
57663;SDS011;43493;53.098;6.064;2023-04-06T01:51:37;7.53;;;4.50;;
57663;SDS011;43493;53.098;6.064;2023-04-06T01:54:02;9.10;;;5.10;;
57663;SDS011;43493;53.098;6.064;2023-04-06T01:56:28;8.63;;;4.10;;
57663;SDS011;43493;53.098;6.064;2023-04-06T01:58:54;10.03;;;4.63;;
57663;SDS011;43493;53.098;6.064;2023-04-06T02:01:20;7.85;;;4.75;;
57663;SDS011;43493;53.098;6.064;2023-04-06T02:03:46;7.82;;;4.75;;
57663;SDS011;43493;53.098;6.064;2023-04-06T02:06:12;8.50;;;4.63;;
57663;SDS011;43493;53.098;6.064;2023-04-06T02:08:38;9.40;;;4.77;;
57663;SDS011;43493;53.098;6.064;2023-04-06T02:11:03;8.83;;;4.07;;
57663;SDS011;43493;53.098;6.064;2023-04-06T02:13:29;7.85;;;3.97;;
57663;SDS011;43493;53.098;6.064;2023-04-06T02:15:55;8.73;;;4.53;;
57663;SDS011;43493;53.098;6.064;2023-04-06T02:18:22;7.65;;;4.30;;
57663;SDS011;43493;53.098;6.064;2023-04-06T02:20:48;7.40;;;4.13;;
57663;SDS011;43493;53.098;6.064;2023-04-06T02:23:13;8.57;;;4.90;;
57663;SDS011;43493;53.098;6.064;2023-04-06T02:25:39;7.17;;;4.63;;
57663;SDS011;43493;53.098;6.064;2023-04-06T02:28:06;7.38;;;4.30;;
57663;SDS011;43493;53.098;6.064;2023-04-06T02:30:32;8.90;;;5.10;;
57663;SDS011;43493;53.098;6.064;2023-04-06T02:32:59;9.00;;;4.83;;
57663;SDS011;43493;53.098;6.064;2023-04-06T02:35:25;7.43;;;4.65;;
57663;SDS011;43493;53.098;6.064;2023-04-06T02:37:52;8.70;;;4.60;;
57663;SDS011;43493;53.098;6.064;2023-04-06T02:40:18;7.70;;;4.50;;
57663;SDS011;43493;53.098;6.064;2023-04-06T02:42:44;8.50;;;4.90;;
57663;SDS011;43493;53.098;6.064;2023-04-06T02:45:10;9.40;;;5.23;;
57663;SDS011;43493;53.098;6.064;2023-04-06T02:47:36;7.03;;;4.47;;
57663;SDS011;43493;53.098;6.064;2023-04-06T02:50:01;8.27;;;4.47;;
57663;SDS011;43493;53.098;6.064;2023-04-06T02:52:28;6.85;;;4.30;;
57663;SDS011;43493;53.098;6.064;2023-04-06T02:54:54;9.13;;;4.67;;
57663;SDS011;43493;53.098;6.064;2023-04-06T02:57:20;8.07;;;4.63;;
57663;SDS011;43493;53.098;6.064;2023-04-06T02:59:46;7.20;;;3.80;;
57663;SDS011;43493;53.098;6.064;2023-04-06T03:02:11;7.67;;;4.70;;
57663;SDS011;43493;53.098;6.064;2023-04-06T03:04:37;7.77;;;5.10;;
57663;SDS011;43493;53.098;6.064;2023-04-06T03:07:03;8.77;;;5.10;;
57663;SDS011;43493;53.098;6.064;2023-04-06T03:09:28;8.17;;;4.77;;
57663;SDS011;43493;53.098;6.064;2023-04-06T03:11:54;9.17;;;4.80;;
57663;SDS011;43493;53.098;6.064;2023-04-06T03:14:20;8.53;;;4.67;;
57663;SDS011;43493;53.098;6.064;2023-04-06T03:16:47;10.00;;;5.00;;
57663;SDS011;43493;53.098;6.064;2023-04-06T03:19:13;9.85;;;4.85;;
57663;SDS011;43493;53.098;6.064;2023-04-06T03:21:39;10.47;;;4.77;;
57663;SDS011;43493;53.098;6.064;2023-04-06T03:24:05;8.23;;;5.53;;
57663;SDS011;43493;53.098;6.064;2023-04-06T03:26:31;8.07;;;4.55;;
57663;SDS011;43493;53.098;6.064;2023-04-06T03:28:57;8.27;;;5.07;;
57663;SDS011;43493;53.098;6.064;2023-04-06T03:31:22;14.90;;;5.40;;
57663;SDS011;43493;53.098;6.064;2023-04-06T03:33:48;10.27;;;5.03;;
57663;SDS011;43493;53.098;6.064;2023-04-06T03:36:14;10.00;;;4.93;;
57663;SDS011;43493;53.098;6.064;2023-04-06T03:38:39;9.57;;;4.60;;
57663;SDS011;43493;53.098;6.064;2023-04-06T03:41:05;8.60;;;4.87;;
57663;SDS011;43493;53.098;6.064;2023-04-06T03:43:31;8.40;;;5.40;;
57663;SDS011;43493;53.098;6.064;2023-04-06T03:45:57;9.77;;;5.07;;
57663;SDS011;43493;53.098;6.064;2023-04-06T03:48:22;9.10;;;5.63;;
57663;SDS011;43493;53.098;6.064;2023-04-06T03:50:48;8.53;;;5.40;;
57663;SDS011;43493;53.098;6.064;2023-04-06T03:53:14;9.83;;;5.30;;
57663;SDS011;43493;53.098;6.064;2023-04-06T03:55:40;8.33;;;5.57;;
57663;SDS011;43493;53.098;6.064;2023-04-06T03:58:06;9.53;;;4.93;;
57663;SDS011;43493;53.098;6.064;2023-04-06T04:00:32;10.20;;;5.77;;
57663;SDS011;43493;53.098;6.064;2023-04-06T04:02:58;8.63;;;5.25;;
57663;SDS011;43493;53.098;6.064;2023-04-06T04:05:24;9.10;;;5.10;;
57663;SDS011;43493;53.098;6.064;2023-04-06T04:07:51;8.95;;;5.13;;
57663;SDS011;43493;53.098;6.064;2023-04-06T04:10:17;10.55;;;5.75;;
57663;SDS011;43493;53.098;6.064;2023-04-06T04:12:43;8.07;;;5.87;;
57663;SDS011;43493;53.098;6.064;2023-04-06T04:15:08;10.73;;;6.17;;
57663;SDS011;43493;53.098;6.064;2023-04-06T04:17:34;9.15;;;5.57;;
57663;SDS011;43493;53.098;6.064;2023-04-06T04:20:00;8.13;;;5.53;;
57663;SDS011;43493;53.098;6.064;2023-04-06T04:22:26;11.43;;;5.30;;
57663;SDS011;43493;53.098;6.064;2023-04-06T04:24:53;9.23;;;5.70;;
57663;SDS011;43493;53.098;6.064;2023-04-06T04:27:18;8.13;;;5.27;;
57663;SDS011;43493;53.098;6.064;2023-04-06T04:29:45;7.97;;;5.13;;
57663;SDS011;43493;53.098;6.064;2023-04-06T04:32:11;8.60;;;5.53;;
57663;SDS011;43493;53.098;6.064;2023-04-06T04:34:37;9.03;;;5.47;;
57663;SDS011;43493;53.098;6.064;2023-04-06T04:37:05;9.82;;;5.80;;
57663;SDS011;43493;53.098;6.064;2023-04-06T04:39:31;11.68;;;6.55;;
57663;SDS011;43493;53.098;6.064;2023-04-06T04:41:57;8.20;;;5.65;;
57663;SDS011;43493;53.098;6.064;2023-04-06T04:44:23;9.33;;;5.93;;
57663;SDS011;43493;53.098;6.064;2023-04-06T04:46:49;10.00;;;6.07;;
57663;SDS011;43493;53.098;6.064;2023-04-06T04:49:15;9.43;;;6.00;;
57663;SDS011;43493;53.098;6.064;2023-04-06T04:51:41;11.03;;;5.73;;
57663;SDS011;43493;53.098;6.064;2023-04-06T04:54:06;9.33;;;6.13;;
57663;SDS011;43493;53.098;6.064;2023-04-06T04:56:32;9.07;;;5.60;;
57663;SDS011;43493;53.098;6.064;2023-04-06T04:58:58;8.97;;;5.87;;
57663;SDS011;43493;53.098;6.064;2023-04-06T05:01:24;10.03;;;6.60;;
57663;SDS011;43493;53.098;6.064;2023-04-06T05:03:50;10.52;;;6.22;;
57663;SDS011;43493;53.098;6.064;2023-04-06T05:06:15;12.03;;;6.40;;
57663;SDS011;43493;53.098;6.064;2023-04-06T05:08:41;10.20;;;7.07;;
57663;SDS011;43493;53.098;6.064;2023-04-06T05:11:08;13.27;;;7.00;;
57663;SDS011;43493;53.098;6.064;2023-04-06T05:13:34;12.98;;;6.53;;
57663;SDS011;43493;53.098;6.064;2023-04-06T05:16:00;10.43;;;6.82;;
57663;SDS011;43493;53.098;6.064;2023-04-06T05:18:26;11.93;;;7.00;;
57663;SDS011;43493;53.098;6.064;2023-04-06T05:20:52;10.03;;;7.17;;
57663;SDS011;43493;53.098;6.064;2023-04-06T05:23:18;10.57;;;6.73;;
57663;SDS011;43493;53.098;6.064;2023-04-06T05:25:43;13.43;;;7.20;;
57663;SDS011;43493;53.098;6.064;2023-04-06T05:28:09;11.97;;;7.10;;
57663;SDS011;43493;53.098;6.064;2023-04-06T05:30:35;12.37;;;7.90;;
57663;SDS011;43493;53.098;6.064;2023-04-06T05:33:01;9.57;;;6.57;;
57663;SDS011;43493;53.098;6.064;2023-04-06T05:35:27;10.55;;;6.15;;
57663;SDS011;43493;53.098;6.064;2023-04-06T05:37:53;11.07;;;6.80;;
57663;SDS011;43493;53.098;6.064;2023-04-06T05:40:18;12.47;;;6.80;;
57663;SDS011;43493;53.098;6.064;2023-04-06T05:42:44;11.03;;;6.60;;
57663;SDS011;43493;53.098;6.064;2023-04-06T05:45:10;11.50;;;6.83;;
57663;SDS011;43493;53.098;6.064;2023-04-06T05:47:41;10.73;;;6.60;;
57663;SDS011;43493;53.098;6.064;2023-04-06T05:50:09;10.80;;;6.32;;
57663;SDS011;43493;53.098;6.064;2023-04-06T05:52:39;11.63;;;6.70;;
57663;SDS011;43493;53.098;6.064;2023-04-06T05:55:08;12.10;;;6.07;;
57663;SDS011;43493;53.098;6.064;2023-04-06T05:57:34;10.82;;;6.35;;
57663;SDS011;43493;53.098;6.064;2023-04-06T06:00:00;13.17;;;7.07;;
57663;SDS011;43493;53.098;6.064;2023-04-06T06:02:30;12.48;;;6.97;;
57663;SDS011;43493;53.098;6.064;2023-04-06T06:04:56;13.23;;;6.53;;
57663;SDS011;43493;53.098;6.064;2023-04-06T06:07:22;11.50;;;6.70;;
57663;SDS011;43493;53.098;6.064;2023-04-06T06:09:48;10.75;;;6.50;;
57663;SDS011;43493;53.098;6.064;2023-04-06T06:12:14;10.55;;;6.82;;
57663;SDS011;43493;53.098;6.064;2023-04-06T06:14:40;12.40;;;6.97;;
57663;SDS011;43493;53.098;6.064;2023-04-06T06:17:06;11.07;;;6.60;;
57663;SDS011;43493;53.098;6.064;2023-04-06T06:19:32;9.60;;;6.47;;
57663;SDS011;43493;53.098;6.064;2023-04-06T06:21:57;13.00;;;6.30;;
57663;SDS011;43493;53.098;6.064;2023-04-06T06:24:24;11.15;;;6.28;;
57663;SDS011;43493;53.098;6.064;2023-04-06T06:26:50;10.93;;;6.60;;
57663;SDS011;43493;53.098;6.064;2023-04-06T06:29:16;10.33;;;5.97;;
57663;SDS011;43493;53.098;6.064;2023-04-06T06:31:42;11.57;;;6.70;;
57663;SDS011;43493;53.098;6.064;2023-04-06T06:34:07;12.20;;;6.73;;
57663;SDS011;43493;53.098;6.064;2023-04-06T06:36:33;10.47;;;5.90;;
57663;SDS011;43493;53.098;6.064;2023-04-06T06:39:00;9.68;;;6.20;;
57663;SDS011;43493;53.098;6.064;2023-04-06T06:41:28;9.10;;;6.15;;
57663;SDS011;43493;53.098;6.064;2023-04-06T06:43:53;9.97;;;6.43;;
57663;SDS011;43493;53.098;6.064;2023-04-06T06:46:20;12.17;;;6.70;;
57663;SDS011;43493;53.098;6.064;2023-04-06T06:48:46;13.75;;;6.78;;
57663;SDS011;43493;53.098;6.064;2023-04-06T06:51:12;9.20;;;6.70;;
57663;SDS011;43493;53.098;6.064;2023-04-06T06:53:37;10.50;;;7.20;;
57663;SDS011;43493;53.098;6.064;2023-04-06T06:56:03;12.67;;;6.80;;
57663;SDS011;43493;53.098;6.064;2023-04-06T06:58:29;9.45;;;6.40;;
57663;SDS011;43493;53.098;6.064;2023-04-06T07:00:56;12.50;;;6.63;;
57663;SDS011;43493;53.098;6.064;2023-04-06T07:03:25;10.68;;;6.72;;
57663;SDS011;43493;53.098;6.064;2023-04-06T07:05:51;13.38;;;8.02;;
57663;SDS011;43493;53.098;6.064;2023-04-06T07:08:20;16.25;;;7.15;;
57663;SDS011;43493;53.098;6.064;2023-04-06T07:10:47;13.75;;;6.50;;
57663;SDS011;43493;53.098;6.064;2023-04-06T07:13:13;10.25;;;7.05;;
57663;SDS011;43493;53.098;6.064;2023-04-06T07:15:46;9.60;;;6.90;;
57663;SDS011;43493;53.098;6.064;2023-04-06T07:18:12;12.73;;;7.20;;
57663;SDS011;43493;53.098;6.064;2023-04-06T07:20:38;12.10;;;7.00;;
57663;SDS011;43493;53.098;6.064;2023-04-06T07:23:04;10.83;;;7.23;;
57663;SDS011;43493;53.098;6.064;2023-04-06T07:25:30;10.80;;;6.83;;
57663;SDS011;43493;53.098;6.064;2023-04-06T07:27:55;12.03;;;7.07;;
57663;SDS011;43493;53.098;6.064;2023-04-06T07:30:21;11.60;;;6.83;;
57663;SDS011;43493;53.098;6.064;2023-04-06T07:32:47;9.90;;;6.97;;
57663;SDS011;43493;53.098;6.064;2023-04-06T07:35:14;10.07;;;6.63;;
57663;SDS011;43493;53.098;6.064;2023-04-06T07:37:40;9.37;;;6.83;;
57663;SDS011;43493;53.098;6.064;2023-04-06T07:40:07;9.10;;;6.20;;
57663;SDS011;43493;53.098;6.064;2023-04-06T07:42:33;9.20;;;6.27;;
57663;SDS011;43493;53.098;6.064;2023-04-06T07:44:59;11.53;;;7.23;;
57663;SDS011;43493;53.098;6.064;2023-04-06T07:47:25;9.53;;;7.13;;
57663;SDS011;43493;53.098;6.064;2023-04-06T07:49:51;11.30;;;7.33;;
57663;SDS011;43493;53.098;6.064;2023-04-06T07:52:16;11.47;;;7.03;;
57663;SDS011;43493;53.098;6.064;2023-04-06T07:54:42;11.67;;;7.63;;
57663;SDS011;43493;53.098;6.064;2023-04-06T07:57:09;11.63;;;7.47;;
57663;SDS011;43493;53.098;6.064;2023-04-06T07:59:34;9.63;;;7.00;;
57663;SDS011;43493;53.098;6.064;2023-04-06T08:02:00;10.00;;;7.10;;
57663;SDS011;43493;53.098;6.064;2023-04-06T08:04:26;11.30;;;7.00;;
57663;SDS011;43493;53.098;6.064;2023-04-06T08:06:52;11.50;;;6.93;;
57663;SDS011;43493;53.098;6.064;2023-04-06T08:09:17;10.93;;;7.10;;
57663;SDS011;43493;53.098;6.064;2023-04-06T08:11:43;12.23;;;7.50;;
57663;SDS011;43493;53.098;6.064;2023-04-06T08:14:11;11.10;;;6.70;;
57663;SDS011;43493;53.098;6.064;2023-04-06T08:16:36;12.57;;;7.60;;
57663;SDS011;43493;53.098;6.064;2023-04-06T08:19:02;11.93;;;7.73;;
57663;SDS011;43493;53.098;6.064;2023-04-06T08:21:29;10.57;;;7.00;;
57663;SDS011;43493;53.098;6.064;2023-04-06T08:23:55;9.57;;;6.73;;
57663;SDS011;43493;53.098;6.064;2023-04-06T08:26:21;10.20;;;6.93;;
57663;SDS011;43493;53.098;6.064;2023-04-06T08:28:47;14.17;;;8.77;;
57663;SDS011;43493;53.098;6.064;2023-04-06T08:31:12;10.93;;;7.83;;
57663;SDS011;43493;53.098;6.064;2023-04-06T08:33:38;12.73;;;8.40;;
57663;SDS011;43493;53.098;6.064;2023-04-06T08:36:11;12.83;;;7.30;;
57663;SDS011;43493;53.098;6.064;2023-04-06T08:38:38;12.67;;;8.20;;
57663;SDS011;43493;53.098;6.064;2023-04-06T08:41:08;12.00;;;7.97;;
57663;SDS011;43493;53.098;6.064;2023-04-06T08:43:41;13.63;;;8.50;;
57663;SDS011;43493;53.098;6.064;2023-04-06T08:46:09;10.63;;;7.70;;
57663;SDS011;43493;53.098;6.064;2023-04-06T08:48:38;13.20;;;9.27;;
57663;SDS011;43493;53.098;6.064;2023-04-06T08:51:05;12.40;;;8.10;;
57663;SDS011;43493;53.098;6.064;2023-04-06T08:53:31;14.60;;;9.03;;
57663;SDS011;43493;53.098;6.064;2023-04-06T08:55:56;15.33;;;9.57;;
57663;SDS011;43493;53.098;6.064;2023-04-06T08:58:24;13.07;;;8.97;;
57663;SDS011;43493;53.098;6.064;2023-04-06T09:00:53;15.47;;;9.07;;
57663;SDS011;43493;53.098;6.064;2023-04-06T09:03:19;15.93;;;9.30;;
57663;SDS011;43493;53.098;6.064;2023-04-06T09:05:46;12.57;;;8.97;;
57663;SDS011;43493;53.098;6.064;2023-04-06T09:08:13;13.63;;;9.33;;
57663;SDS011;43493;53.098;6.064;2023-04-06T09:10:42;14.53;;;9.67;;
57663;SDS011;43493;53.098;6.064;2023-04-06T09:13:08;17.03;;;11.27;;
57663;SDS011;43493;53.098;6.064;2023-04-06T09:15:34;15.10;;;9.90;;
57663;SDS011;43493;53.098;6.064;2023-04-06T09:18:01;16.37;;;10.07;;
57663;SDS011;43493;53.098;6.064;2023-04-06T09:20:26;16.27;;;10.43;;
57663;SDS011;43493;53.098;6.064;2023-04-06T09:22:53;16.47;;;10.07;;
57663;SDS011;43493;53.098;6.064;2023-04-06T09:25:20;17.57;;;11.03;;
57663;SDS011;43493;53.098;6.064;2023-04-06T09:28:00;15.57;;;10.97;;
57663;SDS011;43493;53.098;6.064;2023-04-06T09:30:26;15.83;;;10.77;;
57663;SDS011;43493;53.098;6.064;2023-04-06T09:32:53;13.93;;;11.23;;
57663;SDS011;43493;53.098;6.064;2023-04-06T09:35:21;22.63;;;11.93;;
57663;SDS011;43493;53.098;6.064;2023-04-06T09:37:48;15.57;;;11.10;;
57663;SDS011;43493;53.098;6.064;2023-04-06T09:40:15;15.57;;;11.23;;
57663;SDS011;43493;53.098;6.064;2023-04-06T09:42:47;17.70;;;11.50;;
57663;SDS011;43493;53.098;6.064;2023-04-06T09:45:15;14.57;;;11.17;;
57663;SDS011;43493;53.098;6.064;2023-04-06T09:47:42;16.03;;;11.83;;
57663;SDS011;43493;53.098;6.064;2023-04-06T09:50:10;17.50;;;12.03;;
57663;SDS011;43493;53.098;6.064;2023-04-06T09:52:46;17.20;;;11.77;;
57663;SDS011;43493;53.098;6.064;2023-04-06T09:55:20;14.87;;;11.00;;
57663;SDS011;43493;53.098;6.064;2023-04-06T09:58:05;16.53;;;12.07;;
57663;SDS011;43493;53.098;6.064;2023-04-06T10:00:32;19.43;;;12.67;;
57663;SDS011;43493;53.098;6.064;2023-04-06T10:04:10;16.97;;;11.50;;
57663;SDS011;43493;53.098;6.064;2023-04-06T10:06:15;16.70;;;12.20;;
57663;SDS011;43493;53.098;6.064;2023-04-06T10:08:45;20.33;;;12.83;;
57663;SDS011;43493;53.098;6.064;2023-04-06T10:11:12;19.20;;;12.70;;
57663;SDS011;43493;53.098;6.064;2023-04-06T10:13:39;20.87;;;12.63;;
57663;SDS011;43493;53.098;6.064;2023-04-06T10:16:05;19.13;;;12.50;;
57663;SDS011;43493;53.098;6.064;2023-04-06T10:18:32;17.43;;;12.03;;
57663;SDS011;43493;53.098;6.064;2023-04-06T10:21:04;17.50;;;12.43;;
57663;SDS011;43493;53.098;6.064;2023-04-06T10:28:46;18.65;;;12.95;;
57663;SDS011;43493;53.098;6.064;2023-04-06T10:31:13;21.97;;;14.67;;
57663;SDS011;43493;53.098;6.064;2023-04-06T10:33:39;18.83;;;13.13;;
57663;SDS011;43493;53.098;6.064;2023-04-06T10:38:46;20.80;;;14.20;;
57663;SDS011;43493;53.098;6.064;2023-04-06T10:41:12;23.40;;;13.53;;
57663;SDS011;43493;53.098;6.064;2023-04-06T10:43:41;21.53;;;14.00;;
57663;SDS011;43493;53.098;6.064;2023-04-06T10:46:07;22.87;;;13.80;;
57663;SDS011;43493;53.098;6.064;2023-04-06T10:48:38;20.37;;;14.40;;
57663;SDS011;43493;53.098;6.064;2023-04-06T10:51:12;22.33;;;14.57;;
57663;SDS011;43493;53.098;6.064;2023-04-06T10:53:43;22.50;;;14.40;;
57663;SDS011;43493;53.098;6.064;2023-04-06T10:56:15;21.90;;;14.80;;
57663;SDS011;43493;53.098;6.064;2023-04-06T10:58:51;23.07;;;15.23;;
57663;SDS011;43493;53.098;6.064;2023-04-06T11:01:19;23.63;;;14.73;;
57663;SDS011;43493;53.098;6.064;2023-04-06T11:03:50;21.47;;;14.57;;
57663;SDS011;43493;53.098;6.064;2023-04-06T11:06:21;26.60;;;16.30;;
57663;SDS011;43493;53.098;6.064;2023-04-06T11:08:48;23.10;;;14.57;;
57663;SDS011;43493;53.098;6.064;2023-04-06T11:11:16;23.37;;;15.10;;
57663;SDS011;43493;53.098;6.064;2023-04-06T11:13:50;22.23;;;15.07;;
57663;SDS011;43493;53.098;6.064;2023-04-06T11:19:06;22.57;;;15.33;;
57663;SDS011;43493;53.098;6.064;2023-04-06T11:24:13;22.67;;;15.20;;
57663;SDS011;43493;53.098;6.064;2023-04-06T11:26:43;24.57;;;16.43;;
57663;SDS011;43493;53.098;6.064;2023-04-06T11:29:21;26.67;;;16.00;;
57663;SDS011;43493;53.098;6.064;2023-04-06T11:31:49;24.53;;;17.13;;
57663;SDS011;43493;53.098;6.064;2023-04-06T11:34:20;25.17;;;16.97;;
57663;SDS011;43493;53.098;6.064;2023-04-06T11:36:48;24.10;;;16.40;;
57663;SDS011;43493;53.098;6.064;2023-04-06T11:39:22;21.47;;;16.50;;
57663;SDS011;43493;53.098;6.064;2023-04-06T11:41:52;25.47;;;16.47;;
57663;SDS011;43493;53.098;6.064;2023-04-06T11:44:32;25.13;;;17.93;;
57663;SDS011;43493;53.098;6.064;2023-04-06T11:46:58;23.97;;;16.80;;
57663;SDS011;43493;53.098;6.064;2023-04-06T11:49:29;26.47;;;17.77;;
57663;SDS011;43493;53.098;6.064;2023-04-06T11:51:55;23.70;;;17.40;;
57663;SDS011;43493;53.098;6.064;2023-04-06T11:54:35;25.07;;;17.27;;
57663;SDS011;43493;53.098;6.064;2023-04-06T11:57:02;23.53;;;16.73;;
57663;SDS011;43493;53.098;6.064;2023-04-06T11:59:29;23.97;;;16.00;;
57663;SDS011;43493;53.098;6.064;2023-04-06T12:01:56;22.60;;;15.93;;
57663;SDS011;43493;53.098;6.064;2023-04-06T12:04:22;23.73;;;16.43;;
57663;SDS011;43493;53.098;6.064;2023-04-06T12:06:48;22.87;;;16.77;;
57663;SDS011;43493;53.098;6.064;2023-04-06T12:09:15;24.20;;;16.47;;
57663;SDS011;43493;53.098;6.064;2023-04-06T12:11:42;20.43;;;15.23;;
57663;SDS011;43493;53.098;6.064;2023-04-06T12:14:08;25.00;;;15.50;;
57663;SDS011;43493;53.098;6.064;2023-04-06T12:16:34;20.57;;;15.40;;
57663;SDS011;43493;53.098;6.064;2023-04-06T12:19:00;21.77;;;15.70;;
57663;SDS011;43493;53.098;6.064;2023-04-06T12:21:29;26.17;;;16.13;;
57663;SDS011;43493;53.098;6.064;2023-04-06T12:23:58;21.83;;;15.47;;
57663;SDS011;43493;53.098;6.064;2023-04-06T12:26:24;22.50;;;15.13;;
57663;SDS011;43493;53.098;6.064;2023-04-06T12:28:51;20.33;;;15.43;;
57663;SDS011;43493;53.098;6.064;2023-04-06T12:31:17;21.73;;;14.73;;
57663;SDS011;43493;53.098;6.064;2023-04-06T12:33:49;20.53;;;14.50;;
57663;SDS011;43493;53.098;6.064;2023-04-06T12:36:15;22.33;;;16.23;;
57663;SDS011;43493;53.098;6.064;2023-04-06T12:38:49;19.67;;;14.47;;
57663;SDS011;43493;53.098;6.064;2023-04-06T12:41:16;18.33;;;14.57;;
57663;SDS011;43493;53.098;6.064;2023-04-06T12:43:43;21.43;;;14.20;;
57663;SDS011;43493;53.098;6.064;2023-04-06T12:46:09;20.43;;;14.33;;
57663;SDS011;43493;53.098;6.064;2023-04-06T12:48:36;17.47;;;13.77;;
57663;SDS011;43493;53.098;6.064;2023-04-06T12:51:02;20.37;;;15.00;;
57663;SDS011;43493;53.098;6.064;2023-04-06T12:53:29;20.37;;;15.10;;
57663;SDS011;43493;53.098;6.064;2023-04-06T12:55:56;18.77;;;13.90;;
57663;SDS011;43493;53.098;6.064;2023-04-06T12:58:23;18.67;;;11.90;;
57663;SDS011;43493;53.098;6.064;2023-04-06T13:00:51;17.17;;;12.23;;
57663;SDS011;43493;53.098;6.064;2023-04-06T13:03:18;15.23;;;11.23;;
57663;SDS011;43493;53.098;6.064;2023-04-06T13:05:45;15.00;;;10.20;;
57663;SDS011;43493;53.098;6.064;2023-04-06T13:08:11;15.37;;;10.13;;
57663;SDS011;43493;53.098;6.064;2023-04-06T13:10:42;13.67;;;9.87;;
57663;SDS011;43493;53.098;6.064;2023-04-06T13:13:15;14.87;;;10.40;;
57663;SDS011;43493;53.098;6.064;2023-04-06T13:15:42;15.10;;;10.40;;
57663;SDS011;43493;53.098;6.064;2023-04-06T13:18:08;16.27;;;10.50;;
57663;SDS011;43493;53.098;6.064;2023-04-06T13:20:34;15.03;;;10.37;;
57663;SDS011;43493;53.098;6.064;2023-04-06T13:23:00;16.50;;;11.07;;
57663;SDS011;43493;53.098;6.064;2023-04-06T13:25:26;17.73;;;10.30;;
57663;SDS011;43493;53.098;6.064;2023-04-06T13:27:53;15.60;;;11.13;;
57663;SDS011;43493;53.098;6.064;2023-04-06T13:30:19;18.13;;;11.20;;
57663;SDS011;43493;53.098;6.064;2023-04-06T13:32:45;16.50;;;11.07;;
57663;SDS011;43493;53.098;6.064;2023-04-06T13:35:11;19.03;;;11.77;;
57663;SDS011;43493;53.098;6.064;2023-04-06T13:37:37;17.17;;;12.93;;
57663;SDS011;43493;53.098;6.064;2023-04-06T13:40:04;18.73;;;12.23;;
57663;SDS011;43493;53.098;6.064;2023-04-06T13:42:31;17.40;;;12.33;;
57663;SDS011;43493;53.098;6.064;2023-04-06T13:44:57;20.37;;;13.67;;
57663;SDS011;43493;53.098;6.064;2023-04-06T13:47:24;18.47;;;13.33;;
57663;SDS011;43493;53.098;6.064;2023-04-06T13:49:50;17.37;;;12.73;;
57663;SDS011;43493;53.098;6.064;2023-04-06T13:52:19;18.63;;;13.27;;
57663;SDS011;43493;53.098;6.064;2023-04-06T13:54:45;16.40;;;12.50;;
57663;SDS011;43493;53.098;6.064;2023-04-06T13:57:11;16.63;;;11.73;;
57663;SDS011;43493;53.098;6.064;2023-04-06T13:59:37;16.43;;;13.33;;
57663;SDS011;43493;53.098;6.064;2023-04-06T14:02:04;17.37;;;11.67;;
57663;SDS011;43493;53.098;6.064;2023-04-06T14:04:31;19.07;;;12.50;;
57663;SDS011;43493;53.098;6.064;2023-04-06T14:06:58;13.97;;;10.70;;
57663;SDS011;43493;53.098;6.064;2023-04-06T14:09:24;16.77;;;12.90;;
57663;SDS011;43493;53.098;6.064;2023-04-06T14:11:50;16.57;;;11.93;;
57663;SDS011;43493;53.098;6.064;2023-04-06T14:14:16;17.13;;;12.20;;
57663;SDS011;43493;53.098;6.064;2023-04-06T14:16:43;18.37;;;13.17;;
57663;SDS011;43493;53.098;6.064;2023-04-06T14:19:12;15.33;;;11.17;;
57663;SDS011;43493;53.098;6.064;2023-04-06T14:21:46;14.13;;;10.30;;
57663;SDS011;43493;53.098;6.064;2023-04-06T14:24:12;15.77;;;11.30;;
57663;SDS011;43493;53.098;6.064;2023-04-06T14:26:39;15.63;;;12.37;;
57663;SDS011;43493;53.098;6.064;2023-04-06T14:29:06;16.80;;;11.10;;
57663;SDS011;43493;53.098;6.064;2023-04-06T14:31:32;15.37;;;11.10;;
57663;SDS011;43493;53.098;6.064;2023-04-06T14:34:00;14.67;;;11.40;;
57663;SDS011;43493;53.098;6.064;2023-04-06T14:36:27;14.10;;;10.60;;
57663;SDS011;43493;53.098;6.064;2023-04-06T14:38:57;12.97;;;10.30;;
57663;SDS011;43493;53.098;6.064;2023-04-06T14:41:23;15.97;;;12.30;;
57663;SDS011;43493;53.098;6.064;2023-04-06T14:43:50;16.00;;;11.80;;
57663;SDS011;43493;53.098;6.064;2023-04-06T14:46:17;18.10;;;12.10;;